createdAt,value
2022-11-16T00:00:29.276Z,98102.28
2022-11-16T00:03:43.412Z,98104.39
2022-11-16T00:06:56.327Z,98097.57
2022-11-16T00:10:08.686Z,98088.67
2022-11-16T00:13:20.556Z,98095.77
2022-11-16T00:16:32.357Z,98091.32
2022-11-16T00:19:44.254Z,98092.85
2022-11-16T00:22:55.978Z,98094.50
2022-11-16T00:26:13.539Z,98090.05
2022-11-16T00:29:28.704Z,98095.19
2022-11-16T00:32:40.382Z,98086.41
2022-11-16T00:35:52.088Z,98087.68
2022-11-16T00:39:03.739Z,98091.47
2022-11-16T00:42:15.435Z,98091.47
2022-11-16T00:45:27.072Z,98080.89
2022-11-16T00:48:39.074Z,98084.50
2022-11-16T00:51:51.159Z,98086.19
2022-11-16T00:55:02.898Z,98083.66
2022-11-16T00:58:14.796Z,98086.61
2022-11-16T01:01:27.972Z,98079.52
2022-11-16T01:04:39.762Z,98068.78
2022-11-16T01:07:51.644Z,98071.58
2022-11-16T01:11:06.012Z,98067.10
2022-11-16T01:14:17.805Z,98072.55
2022-11-16T01:17:29.538Z,98067.25
2022-11-16T01:20:41.202Z,98066.98
2022-11-16T01:23:53.195Z,98071.70
2022-11-16T01:27:05.147Z,98064.23
2022-11-16T01:30:22.458Z,98060.05
2022-11-16T01:33:45.151Z,98062.27
2022-11-16T01:36:58.801Z,98044.45
2022-11-16T01:40:16.057Z,98041.92
2022-11-16T01:43:31.790Z,98045.41
2022-11-16T01:46:45.537Z,98037.48
2022-11-16T01:50:03.692Z,98036.36
2022-11-16T01:53:19.089Z,98024.79
2022-11-16T01:56:33.802Z,98019.27
2022-11-16T01:59:59.948Z,98016.63
2022-11-16T02:03:13.737Z,98018.00
2022-11-16T02:06:48.742Z,98016.05
2022-11-16T02:10:14.851Z,98009.77
2022-11-16T02:13:46.500Z,98006.28
2022-11-16T02:17:05.132Z,97992.98
2022-11-16T02:20:48.618Z,97994.10
2022-11-16T02:24:46.697Z,97977.81
2022-11-16T02:28:20.864Z,97982.64
2022-11-16T02:31:37.351Z,97986.66
2022-11-16T02:34:53.555Z,97984.69
2022-11-16T02:38:09.989Z,97977.75
2022-11-16T02:41:25.941Z,97972.59
2022-11-16T02:44:41.636Z,97975.23
2022-11-16T02:47:56.663Z,97974.55
2022-11-16T02:51:11.806Z,97965.25
2022-11-16T02:54:26.647Z,97962.75
2022-11-16T02:57:57.889Z,97952.18
2022-11-16T03:01:15.563Z,97947.20
2022-11-16T03:04:32.658Z,97955.81
2022-11-16T03:07:49.690Z,97948.57
2022-11-16T03:11:21.027Z,97952.02
2022-11-16T03:14:38.941Z,97944.66
2022-11-16T03:17:54.087Z,97947.14
2022-11-16T03:21:15.612Z,97948.67
2022-11-16T03:24:28.473Z,97937.78
2022-11-16T03:27:47.030Z,97948.08
2022-11-16T03:31:04.386Z,97943.75
2022-11-16T03:34:22.826Z,97946.39
2022-11-16T03:37:37.150Z,97932.20
2022-11-16T03:40:52.554Z,97936.34
2022-11-16T03:44:06.069Z,97933.86
2022-11-16T03:47:19.189Z,97926.23
2022-11-16T03:50:31.282Z,97922.22
2022-11-16T03:53:44.349Z,97927.88
2022-11-16T03:56:56.852Z,97933.86
2022-11-16T04:00:10.633Z,97921.63
2022-11-16T04:16:31.131Z,97922.44
2022-11-16T04:20:09.499Z,97916.93
2022-11-16T04:23:38.049Z,97917.21
2022-11-16T04:27:09.026Z,97909.59
2022-11-16T04:34:43.040Z,97905.95
2022-11-16T04:45:34.518Z,97899.98
2022-11-16T05:03:18.683Z,97884.88
2022-11-16T05:10:47.768Z,97887.25
2022-11-16T05:14:00.166Z,97883.61
2022-11-16T05:17:13.388Z,97881.56
2022-11-16T05:20:40.295Z,97879.82
2022-11-16T05:24:07.135Z,97875.34
2022-11-16T05:27:22.036Z,97873.85
2022-11-16T05:34:53.448Z,97866.76
2022-11-16T05:38:05.074Z,97869.53
2022-11-16T05:41:18.304Z,97878.83
2022-11-16T05:44:30.765Z,97876.18
2022-11-16T05:47:42.981Z,97882.16
2022-11-16T05:50:54.886Z,97871.05
2022-11-16T05:54:09.449Z,97871.36
2022-11-16T05:57:21.172Z,97870.52
2022-11-16T06:00:32.787Z,97867.88
2022-11-16T06:03:44.648Z,97859.11
2022-11-16T06:10:27.231Z,97859.95
2022-11-16T06:13:39.630Z,97865.52
2022-11-16T06:16:51.756Z,97859.55
2022-11-16T06:20:04.818Z,97855.94
2022-11-16T06:39:23.778Z,97862.84
2022-11-16T06:42:36.611Z,97855.13
2022-11-16T06:45:48.646Z,97855.13
2022-11-16T06:49:01.820Z,97850.00
2022-11-16T06:52:13.846Z,97850.53
2022-11-16T06:55:25.798Z,97839.49
2022-11-16T06:58:38.474Z,97839.80
2022-11-16T07:01:51.800Z,97838.59
2022-11-16T07:05:04.541Z,97830.88
2022-11-16T07:08:16.704Z,97837.16
2022-11-16T07:11:28.465Z,97836.85
2022-11-16T07:14:40.095Z,97820.31
2022-11-16T07:17:52.986Z,97820.31
2022-11-16T07:21:05.377Z,97820.03
2022-11-16T07:24:18.430Z,97821.22
2022-11-16T07:27:32.400Z,97807.75
2022-11-16T07:30:44.692Z,97822.73
2022-11-16T07:33:59.153Z,97818.20
2022-11-16T07:37:22.060Z,97821.65
2022-11-16T07:40:33.663Z,97812.45
2022-11-16T07:43:52.595Z,97817.61
2022-11-16T07:47:03.023Z,97818.42
2022-11-16T07:50:16.242Z,97815.16
2022-11-16T07:53:28.412Z,97827.09
2022-11-16T07:56:40.105Z,97820.69
2022-11-16T07:59:52.247Z,97822.48
2022-11-16T08:03:06.711Z,97826.50
2022-11-16T08:06:23.381Z,97825.53
2022-11-16T08:09:34.911Z,97831.69
2022-11-16T08:12:46.887Z,97835.76
2022-11-16T08:15:58.390Z,97834.66
2022-11-16T08:19:10.728Z,97839.13
2022-11-16T08:22:22.846Z,97838.04
2022-11-16T08:25:34.382Z,97840.34
2022-11-16T08:28:48.142Z,97835.48
2022-11-16T08:31:59.777Z,97844.52
2022-11-16T08:35:13.638Z,97836.48
2022-11-16T08:42:15.412Z,97839.73
2022-11-16T08:45:29.004Z,97843.09
2022-11-16T08:48:42.710Z,97836.97
2022-11-16T08:51:55.009Z,97841.14
2022-11-16T08:55:06.770Z,97840.99
2022-11-16T08:58:18.994Z,97829.92
2022-11-16T09:01:33.773Z,97853.22
2022-11-16T09:04:46.041Z,97853.67
2022-11-16T09:07:57.639Z,97859.09
2022-11-16T09:11:12.136Z,97847.16
2022-11-16T09:14:23.852Z,97851.45
2022-11-16T09:17:35.733Z,97845.48
2022-11-16T09:20:50.602Z,97833.52
2022-11-16T09:24:03.575Z,97827.28
2022-11-16T09:27:16.544Z,97832.14
2022-11-16T09:30:28.361Z,97814.09
2022-11-16T09:33:40.778Z,97809.92
2022-11-16T09:36:52.352Z,97807.41
2022-11-16T09:40:03.878Z,97809.63
2022-11-16T09:43:22.999Z,97805.04
2022-11-16T09:46:39.056Z,97807.95
2022-11-16T09:50:03.003Z,97797.70
2022-11-16T09:53:27.088Z,97787.38
2022-11-16T09:56:42.944Z,97780.18
2022-11-16T09:59:58.785Z,97783.51
2022-11-16T10:03:15.948Z,97778.53
2022-11-16T10:06:30.334Z,97779.61
2022-11-16T10:09:42.906Z,97769.78
2022-11-16T10:12:59.312Z,97768.79
2022-11-16T10:16:16.446Z,97756.47
2022-11-16T10:19:29.739Z,97759.38
2022-11-16T10:22:50.647Z,97752.42
2022-11-16T10:26:08.775Z,97747.83
2022-11-16T10:29:42.781Z,97741.29
2022-11-16T10:32:59.611Z,97744.13
2022-11-16T10:36:18.855Z,97742.55
2022-11-16T10:39:32.940Z,97736.70
2022-11-16T10:42:45.355Z,97738.27
2022-11-16T10:46:01.716Z,97734.95
2022-11-16T10:49:19.194Z,97739.77
2022-11-16T10:52:33.340Z,97738.80
2022-11-16T10:55:45.048Z,97738.84
2022-11-16T10:59:05.127Z,97727.60
2022-11-16T11:02:46.116Z,97734.41
2022-11-16T11:06:00.863Z,97727.75
2022-11-16T11:09:33.902Z,97725.80
2022-11-16T11:12:49.682Z,97724.97
2022-11-16T11:16:20.292Z,97734.14
2022-11-16T11:19:35.823Z,97730.81
2022-11-16T11:22:54.031Z,97728.33
2022-11-16T11:26:06.769Z,97726.80
2022-11-16T11:29:31.540Z,97724.85
2022-11-16T11:32:46.256Z,97732.19
2022-11-16T11:36:08.756Z,97732.77
2022-11-16T11:39:39.660Z,97729.29
2022-11-16T11:43:00.592Z,97727.34
2022-11-16T11:46:19.500Z,97723.63
2022-11-16T11:49:35.770Z,97725.81
2022-11-16T11:52:54.828Z,97723.47
2022-11-16T11:56:07.408Z,97713.88
2022-11-16T11:59:24.375Z,97710.28
2022-11-16T12:02:48.868Z,97715.95
2022-11-16T12:06:15.610Z,97706.92
2022-11-16T12:09:40.730Z,97711.94
2022-11-16T12:13:03.760Z,97711.66
2022-11-16T12:16:22.333Z,97708.19
2022-11-16T12:20:03.856Z,97713.88
2022-11-16T12:23:42.839Z,97708.76
2022-11-16T12:27:03.872Z,97710.28
2022-11-16T12:30:22.072Z,97691.98
2022-11-16T12:33:42.041Z,97701.95
2022-11-16T12:37:02.378Z,97690.84
2022-11-16T12:40:37.906Z,97694.16
2022-11-16T12:43:54.618Z,97695.84
2022-11-16T12:47:12.530Z,97695.00
2022-11-16T12:50:43.390Z,97704.17
2022-11-16T12:54:11.736Z,97694.47
2022-11-16T12:57:29.048Z,97681.81
2022-11-16T13:00:57.592Z,97686.39
2022-11-16T13:04:14.113Z,97693.66
2022-11-16T13:07:31.169Z,97689.46
2022-11-16T13:10:45.480Z,97687.81
2022-11-16T13:14:02.346Z,97688.39
2022-11-16T13:17:19.408Z,97678.72
2022-11-16T13:20:35.937Z,97690.64
2022-11-16T13:23:58.589Z,97690.03
2022-11-16T13:27:26.165Z,97686.59
2022-11-16T13:30:40.468Z,97680.48
2022-11-16T13:33:54.704Z,97679.64
2022-11-16T13:37:06.504Z,97682.81
2022-11-16T13:40:31.881Z,97691.56
2022-11-16T13:43:45.860Z,97688.69
2022-11-16T13:47:03.261Z,97677.45
2022-11-16T13:50:26.170Z,97678.98
2022-11-16T13:56:57.873Z,97664.43
2022-11-16T14:00:26.820Z,97675.39
2022-11-16T14:03:44.754Z,97682.73
2022-11-16T14:07:05.808Z,97673.72
2022-11-16T14:10:33.670Z,97676.66
2022-11-16T14:13:47.418Z,97674.58
2022-11-16T14:16:59.183Z,97673.59
2022-11-16T14:20:17.113Z,97668.47
2022-11-16T14:23:58.779Z,97672.76
2022-11-16T14:27:17.034Z,97661.55
2022-11-16T14:30:33.255Z,97658.53
2022-11-16T14:33:45.319Z,97668.08
2022-11-16T14:36:57.612Z,97667.25
2022-11-16T14:40:19.189Z,97663.20
2022-11-16T14:43:34.912Z,97658.08
2022-11-16T14:46:47.573Z,97660.59
2022-11-16T14:50:00.720Z,97656.97
2022-11-16T14:53:16.659Z,97661.41
2022-11-16T14:56:28.519Z,97664.61
2022-11-16T14:59:40.465Z,97668.63
2022-11-16T15:02:59.110Z,97669.05
2022-11-16T15:06:10.649Z,97670.99
2022-11-16T15:09:28.898Z,97661.97
2022-11-16T15:12:50.252Z,97668.33
2022-11-16T15:16:21.267Z,97664.05
2022-11-16T15:19:36.677Z,97656.94
2022-11-16T15:22:51.742Z,97648.91
2022-11-16T15:26:04.785Z,97652.13
2022-11-16T15:29:24.920Z,97648.80
2022-11-16T15:32:38.349Z,97655.17
2022-11-16T15:35:50.546Z,97653.26
2022-11-16T15:39:03.812Z,97655.33
2022-11-16T15:42:19.855Z,97654.64
2022-11-16T15:45:32.976Z,97655.17
2022-11-16T15:48:46.424Z,97657.96
2022-11-16T15:51:58.116Z,97643.64
2022-11-16T15:55:10.336Z,97643.52
2022-11-16T15:58:28.054Z,97647.42
2022-11-16T16:01:45.977Z,97650.47
2022-11-16T16:04:58.131Z,97642.98
2022-11-16T16:08:10.929Z,97641.04
2022-11-16T16:11:35.128Z,97643.56
2022-11-16T16:14:46.981Z,97646.04
2022-11-16T16:17:59.762Z,97643.13
2022-11-16T16:21:11.910Z,97639.96
2022-11-16T16:24:48.030Z,97636.34
2022-11-16T16:27:59.699Z,97642.59
2022-11-16T16:31:12.121Z,97645.63
2022-11-16T16:34:25.029Z,97646.61
2022-11-16T16:37:38.651Z,97649.25
2022-11-16T16:40:50.616Z,97645.77
2022-11-16T16:44:02.321Z,97648.55
2022-11-16T16:47:14.346Z,97653.14
2022-11-16T16:50:26.054Z,97649.66
2022-11-16T16:53:39.572Z,97649.39
2022-11-16T16:56:51.179Z,97651.32
2022-11-16T17:00:03.107Z,97652.89
2022-11-16T17:03:14.923Z,97643.73
2022-11-16T17:06:29.955Z,97649.40
2022-11-16T17:09:41.813Z,97651.75
2022-11-16T17:12:53.919Z,97655.64
2022-11-16T17:16:09.753Z,97644.00
2022-11-16T17:19:24.472Z,97642.47
2022-11-16T17:22:37.520Z,97644.84
2022-11-16T17:25:49.355Z,97640.67
2022-11-16T17:29:03.983Z,97652.19
2022-11-16T17:32:15.726Z,97649.41
2022-11-16T17:35:27.472Z,97654.83
2022-11-16T17:38:39.918Z,97655.50
2022-11-16T17:41:51.696Z,97661.20
2022-11-16T17:45:03.323Z,97662.45
2022-11-16T17:48:15.166Z,97664.09
2022-11-16T17:51:29.911Z,97667.83
2022-11-16T17:54:41.560Z,97672.95
2022-11-16T17:57:53.263Z,97666.03
2022-11-16T18:01:05.377Z,97667.69
2022-11-16T18:04:17.315Z,97664.50
2022-11-16T18:07:29.982Z,97666.58
2022-11-16T18:10:42.120Z,97671.55
2022-11-16T18:13:58.032Z,97668.52
2022-11-16T18:17:09.825Z,97663.79
2022-11-16T18:20:22.661Z,97670.43
2022-11-16T18:23:34.965Z,97668.75
2022-11-16T18:26:47.606Z,97664.56
2022-11-16T18:29:59.337Z,97673.86
2022-11-16T18:33:11.134Z,97676.23
2022-11-16T18:36:24.986Z,97678.25
2022-11-16T18:39:36.682Z,97680.88
2022-11-16T18:42:48.325Z,97682.00
2022-11-16T18:45:59.911Z,97687.13
2022-11-16T18:49:12.173Z,97676.16
2022-11-16T18:52:23.911Z,97674.76
2022-11-16T18:55:35.659Z,97675.98
2022-11-16T18:58:52.301Z,97670.03
2022-11-16T19:02:01.558Z,97678.38
2022-11-16T19:05:15.143Z,97679.31
2022-11-16T19:08:26.899Z,97686.67
2022-11-16T19:11:38.665Z,97679.73
2022-11-16T19:14:50.376Z,97682.75
2022-11-16T19:18:21.925Z,97678.97
2022-11-16T19:21:18.606Z,97684.13
2022-11-16T19:24:30.341Z,97672.34
2022-11-16T19:27:42.049Z,97687.66
2022-11-16T19:30:53.975Z,97684.38
2022-11-16T19:34:11.409Z,97686.30
2022-11-16T19:37:23.492Z,97678.94
2022-11-16T19:40:35.267Z,97683.81
2022-11-16T19:43:47.667Z,97686.44
2022-11-16T19:46:59.443Z,97685.70
2022-11-16T19:50:14.010Z,97691.72
2022-11-16T19:53:25.661Z,97684.11
2022-11-16T19:56:37.462Z,97682.98
2022-11-16T19:59:49.166Z,97684.63
2022-11-16T20:03:04.396Z,97690.27
2022-11-16T20:06:19.680Z,97686.69
2022-11-16T20:09:31.471Z,97685.71
2022-11-16T20:12:43.625Z,97690.67
2022-11-16T20:15:55.333Z,97689.64
2022-11-16T20:19:07.769Z,97691.30
2022-11-16T20:22:19.745Z,97694.25
2022-11-16T20:25:33.333Z,97692.46
2022-11-16T20:28:46.761Z,97703.80
2022-11-16T20:31:58.781Z,97703.42
2022-11-16T20:35:16.184Z,97700.59
2022-11-16T20:38:25.359Z,97697.51
2022-11-16T20:41:38.607Z,97707.44
2022-11-16T20:44:50.492Z,97708.61
2022-11-16T20:48:02.547Z,97702.52
2022-11-16T20:51:17.233Z,97707.20
2022-11-16T20:54:28.952Z,97710.33
2022-11-16T20:57:40.701Z,97706.73
2022-11-16T21:00:52.555Z,97702.19
2022-11-16T21:04:06.500Z,97703.77
2022-11-16T21:07:19.635Z,97695.79
2022-11-16T21:10:33.509Z,97688.86
2022-11-16T21:14:00.463Z,97686.50
2022-11-16T21:17:12.569Z,97687.20
2022-11-16T21:20:28.654Z,97680.28
2022-11-16T21:23:40.995Z,97684.45
2022-11-16T21:26:53.763Z,97683.61
2022-11-16T21:30:07.316Z,97682.27
2022-11-16T21:33:19.390Z,97684.78
2022-11-16T21:36:33.264Z,97687.20
2022-11-16T21:39:45.174Z,97679.70
2022-11-16T21:42:58.574Z,97681.05
2022-11-16T21:46:15.239Z,97679.94
2022-11-16T21:49:27.338Z,97668.36
2022-11-16T21:52:39.085Z,97669.07
2022-11-16T21:55:55.602Z,97674.39
2022-11-16T21:59:07.576Z,97672.70
2022-11-16T22:02:19.830Z,97680.47
2022-11-16T22:05:46.218Z,97687.45
2022-11-16T22:08:58.505Z,97689.36
2022-11-16T22:12:10.932Z,97692.97
2022-11-16T22:15:22.989Z,97693.20
2022-11-16T22:18:37.200Z,97694.61
2022-11-16T22:21:49.172Z,97687.11
2022-11-16T22:25:00.965Z,97686.80
2022-11-16T22:28:20.566Z,97693.20
2022-11-16T22:31:27.403Z,97684.38
2022-11-16T22:34:39.694Z,97684.38
2022-11-16T22:37:51.439Z,97686.03
2022-11-16T22:41:04.339Z,97678.66
2022-11-16T22:44:16.068Z,97689.63
2022-11-16T22:47:27.917Z,97689.86
2022-11-16T22:50:39.810Z,97693.70
2022-11-16T22:53:52.354Z,97688.45
2022-11-16T22:57:04.219Z,97681.71
2022-11-16T23:00:20.126Z,97686.59
2022-11-16T23:03:32.107Z,97699.00
2022-11-16T23:06:44.545Z,97696.11
2022-11-16T23:09:56.320Z,97696.17
2022-11-16T23:13:22.357Z,97696.22
2022-11-16T23:16:34.094Z,97694.27
2022-11-16T23:20:17.427Z,97686.53
2022-11-16T23:23:44.141Z,97675.23
2022-11-16T23:27:11.037Z,97684.62
2022-11-16T23:30:23.557Z,97675.25
2022-11-16T23:33:47.378Z,97675.95
2022-11-16T23:36:59.136Z,97673.20
2022-11-16T23:40:15.194Z,97675.11
2022-11-16T23:43:41.616Z,97667.14
2022-11-16T23:46:53.430Z,97662.71
2022-11-16T23:50:05.202Z,97661.06
2022-11-16T23:53:18.233Z,97661.91
2022-11-16T23:56:30.571Z,97664.52
2022-11-16T23:59:42.548Z,97663.20
